createdAt,value
2018-05-11T00:01:43.464Z,97809.95
2018-05-11T00:04:14.506Z,97812.08
2018-05-11T00:06:45.494Z,97811.28
2018-05-11T00:09:16.511Z,97807.56
2018-05-11T00:11:47.490Z,97807.30
2018-05-11T00:14:18.536Z,97800.92
2018-05-11T00:16:49.525Z,97801.05
2018-05-11T00:19:20.509Z,97799.70
2018-05-11T00:21:51.515Z,97802.58
2018-05-11T00:24:22.510Z,97801.62
2018-05-11T00:26:53.493Z,97793.92
2018-05-11T00:29:24.494Z,97795.81
2018-05-11T00:31:55.457Z,97793.48
2018-05-11T00:34:26.483Z,97796.20
2018-05-11T00:36:57.471Z,97802.06
2018-05-11T00:39:28.455Z,97808.20
2018-05-11T00:41:59.421Z,97810.66
2018-05-11T00:44:30.413Z,97804.30
2018-05-11T00:47:01.383Z,97809.50
2018-05-11T00:49:32.370Z,97804.48
2018-05-11T00:52:03.369Z,97801.30
2018-05-11T00:54:34.397Z,97806.69
2018-05-11T00:57:05.375Z,97796.73
2018-05-11T00:59:36.366Z,97804.80
2018-05-11T01:02:07.390Z,97806.45
2018-05-11T01:04:38.350Z,97802.64
2018-05-11T01:07:09.373Z,97804.23
2018-05-11T01:09:40.360Z,97805.14
2018-05-11T01:12:11.338Z,97803.95
2018-05-11T01:14:42.333Z,97809.89
2018-05-11T01:17:13.366Z,97812.86
2018-05-11T01:19:44.404Z,97814.73
2018-05-11T01:22:15.412Z,97814.88
2018-05-11T01:24:46.364Z,97820.04
2018-05-11T01:27:17.382Z,97824.93
2018-05-11T01:29:48.431Z,97825.86
2018-05-11T01:32:19.406Z,97825.86
2018-05-11T01:34:50.445Z,97827.84
2018-05-11T01:37:21.438Z,97834.24
2018-05-11T01:39:52.488Z,97835.44
2018-05-11T01:42:23.379Z,97834.22
2018-05-11T01:44:54.355Z,97835.66
2018-05-11T01:47:25.329Z,97835.55
2018-05-11T01:49:56.317Z,97834.89
2018-05-11T01:52:27.290Z,97831.94
2018-05-11T01:54:58.291Z,97833.27
2018-05-11T01:57:29.290Z,97834.71
2018-05-11T02:00:00.317Z,97836.17
2018-05-11T02:02:31.320Z,97837.48
2018-05-11T02:05:02.335Z,97832.21
2018-05-11T02:07:33.310Z,97833.14
2018-05-11T02:10:04.381Z,97827.33
2018-05-11T02:12:35.384Z,97834.36
2018-05-11T02:15:06.462Z,97833.16
2018-05-11T02:17:37.498Z,97830.38
2018-05-11T02:20:08.523Z,97828.50
2018-05-11T02:22:39.503Z,97832.08
2018-05-11T02:25:10.471Z,97826.27
2018-05-11T02:27:41.530Z,97834.08
2018-05-11T02:30:12.509Z,97829.17
2018-05-11T02:32:43.519Z,97828.00
2018-05-11T02:35:14.518Z,97826.30
2018-05-11T02:37:45.552Z,97823.91
2018-05-11T02:40:16.536Z,97827.23
2018-05-11T02:42:47.540Z,97823.14
2018-05-11T02:45:18.557Z,97824.72
2018-05-11T02:47:49.552Z,97823.02
2018-05-11T02:50:20.607Z,97821.41
2018-05-11T02:52:51.608Z,97825.39
2018-05-11T02:55:22.584Z,97820.47
2018-05-11T02:57:53.560Z,97819.80
2018-05-11T03:00:24.545Z,97820.34
2018-05-11T03:02:55.503Z,97818.59
2018-05-11T03:05:26.465Z,97825.38
2018-05-11T03:07:57.433Z,97816.88
2018-05-11T03:10:28.538Z,97823.94
2018-05-11T03:12:59.480Z,97820.47
2018-05-11T03:15:30.495Z,97821.13
2018-05-11T03:18:01.544Z,97823.00
2018-05-11T03:20:32.571Z,97821.27
2018-05-11T03:23:03.617Z,97821.11
2018-05-11T03:25:34.598Z,97822.04
2018-05-11T03:28:05.651Z,97818.58
2018-05-11T03:30:36.643Z,97818.45
2018-05-11T03:33:08.473Z,97822.80
2018-05-11T03:35:39.446Z,97818.83
2018-05-11T03:38:10.450Z,97818.45
2018-05-11T03:40:41.428Z,97814.36
2018-05-11T03:43:12.389Z,97813.70
2018-05-11T03:45:43.388Z,97817.80
2018-05-11T03:48:14.380Z,97824.44
2018-05-11T03:50:45.400Z,97825.36
2018-05-11T03:53:16.394Z,97829.05
2018-05-11T03:55:47.354Z,97830.91
2018-05-11T03:58:18.332Z,97833.43
2018-05-11T04:00:49.336Z,97831.95
2018-05-11T04:03:32.737Z,97835.64
2018-05-11T04:06:03.755Z,97835.53
2018-05-11T04:08:43.411Z,97839.64
2018-05-11T04:11:14.376Z,97845.61
2018-05-11T04:13:45.399Z,97839.91
2018-05-11T04:16:16.388Z,97837.77
2018-05-11T04:18:47.356Z,97840.13
2018-05-11T04:21:18.385Z,97848.20
2018-05-11T04:23:49.420Z,97847.56
2018-05-11T04:26:20.419Z,97850.09
2018-05-11T04:28:51.396Z,97847.28
2018-05-11T04:31:22.410Z,97852.33
2018-05-11T04:33:53.391Z,97853.10
2018-05-11T04:36:24.391Z,97850.29
2018-05-11T04:38:55.406Z,97848.06
2018-05-11T04:41:26.393Z,97846.97
2018-05-11T04:43:57.435Z,97846.97
2018-05-11T04:46:28.398Z,97853.95
2018-05-11T04:48:59.418Z,97847.78
2018-05-11T04:51:30.404Z,97846.84
2018-05-11T04:54:01.433Z,97845.44
2018-05-11T04:56:32.402Z,97850.19
2018-05-11T04:59:03.389Z,97847.17
2018-05-11T05:01:34.385Z,97849.80
2018-05-11T05:04:05.385Z,97851.08
2018-05-11T05:06:36.377Z,97853.95
2018-05-11T05:09:07.356Z,97853.27
2018-05-11T05:11:38.392Z,97854.27
2018-05-11T05:14:09.365Z,97854.67
2018-05-11T05:16:40.387Z,97852.33
2018-05-11T05:19:11.468Z,97848.27
2018-05-11T05:21:42.388Z,97849.11
2018-05-11T05:24:13.359Z,97850.23
2018-05-11T05:26:44.373Z,97853.36
2018-05-11T05:29:15.353Z,97852.67
2018-05-11T05:31:46.345Z,97857.28
2018-05-11T05:34:17.326Z,97856.94
2018-05-11T05:36:48.330Z,97859.77
2018-05-11T05:39:19.321Z,97863.28
2018-05-11T05:41:50.296Z,97870.38
2018-05-11T05:44:21.289Z,97867.42
2018-05-11T05:46:52.280Z,97869.25
2018-05-11T05:49:23.264Z,97869.48
2018-05-11T05:51:54.295Z,97873.27
2018-05-11T05:54:25.266Z,97871.89
2018-05-11T05:56:56.276Z,97873.87
2018-05-11T05:59:27.283Z,97872.20
2018-05-11T06:01:58.283Z,97871.97
2018-05-11T06:04:29.223Z,97871.48
2018-05-11T06:07:00.282Z,97874.13
2018-05-11T06:09:31.303Z,97863.70
2018-05-11T06:12:02.342Z,97866.85
2018-05-11T06:14:33.341Z,97870.96
2018-05-11T06:17:05.138Z,97868.85
2018-05-11T06:19:38.666Z,97874.52
2018-05-11T06:22:09.888Z,97871.38
2018-05-11T06:24:41.055Z,97873.05
2018-05-11T06:27:14.324Z,97881.95
2018-05-11T06:29:45.429Z,97882.07
2018-05-11T06:32:17.369Z,97875.67
2018-05-11T06:34:48.527Z,97882.80
2018-05-11T06:37:19.651Z,97880.84
2018-05-11T06:39:50.840Z,97873.16
2018-05-11T06:42:23.004Z,97874.52
2018-05-11T06:44:54.004Z,97866.75
2018-05-11T06:47:25.004Z,97868.98
2018-05-11T06:49:56.044Z,97867.02
2018-05-11T06:52:27.016Z,97870.19
2018-05-11T06:54:57.997Z,97870.81
2018-05-11T06:57:28.978Z,97870.43
2018-05-11T06:59:59.994Z,97869.63
2018-05-11T07:02:30.968Z,97864.38
2018-05-11T07:05:01.980Z,97864.77
2018-05-11T07:07:32.965Z,97863.62
2018-05-11T07:10:04.014Z,97862.36
2018-05-11T07:12:35.028Z,97861.78
2018-05-11T07:15:06.042Z,97858.84
2018-05-11T07:17:37.032Z,97864.57
2018-05-11T07:20:08.078Z,97866.66
2018-05-11T07:22:39.069Z,97864.16
2018-05-11T07:25:10.106Z,97860.77
2018-05-11T07:27:41.108Z,97858.97
2018-05-11T07:30:12.120Z,97857.14
2018-05-11T07:32:43.138Z,97858.16
2018-05-11T07:35:14.173Z,97860.20
2018-05-11T07:37:45.164Z,97861.45
2018-05-11T07:40:16.244Z,97855.45
2018-05-11T07:42:47.189Z,97846.31
2018-05-11T07:45:18.198Z,97845.63
2018-05-11T07:47:49.210Z,97845.95
2018-05-11T07:50:20.212Z,97847.20
2018-05-11T07:52:51.177Z,97847.38
2018-05-11T07:55:22.179Z,97846.25
2018-05-11T07:57:53.166Z,97853.02
2018-05-11T08:00:24.160Z,97850.95
2018-05-11T08:02:55.196Z,97851.91
2018-05-11T08:05:26.223Z,97848.58
2018-05-11T08:07:57.227Z,97842.41
2018-05-11T08:10:28.476Z,97844.36
2018-05-11T08:13:00.457Z,97849.03
2018-05-11T08:15:31.564Z,97846.33
2018-05-11T08:18:02.561Z,97843.75
2018-05-11T08:20:33.582Z,97843.28
2018-05-11T08:23:04.613Z,97841.84
2018-05-11T08:25:35.626Z,97839.49
2018-05-11T08:28:06.613Z,97838.08
2018-05-11T08:30:37.768Z,97828.41
2018-05-11T08:33:08.779Z,97822.14
2018-05-11T08:35:39.755Z,97816.69
2018-05-11T08:38:10.715Z,97814.22
2018-05-11T08:40:41.776Z,97812.83
2018-05-11T08:43:12.771Z,97811.51
2018-05-11T08:45:43.776Z,97814.97
2018-05-11T08:48:14.734Z,97812.98
2018-05-11T08:50:45.760Z,97811.00
2018-05-11T08:53:16.771Z,97812.95
2018-05-11T08:55:47.862Z,97802.77
2018-05-11T08:58:18.904Z,97808.45
2018-05-11T09:00:49.913Z,97807.14
2018-05-11T09:03:20.924Z,97813.02
2018-05-11T09:05:51.949Z,97816.20
2018-05-11T09:08:22.951Z,97812.39
2018-05-11T09:10:53.916Z,97807.97
2018-05-11T09:13:31.917Z,97800.97
2018-05-11T09:16:02.945Z,97803.70
2018-05-11T09:18:33.941Z,97794.06
2018-05-11T09:21:04.946Z,97800.73
2018-05-11T09:23:35.945Z,97804.47
2018-05-11T09:26:06.999Z,97798.59
2018-05-11T09:28:38.036Z,97801.27
2018-05-11T09:31:09.051Z,97803.20
2018-05-11T09:33:40.033Z,97804.38
2018-05-11T09:36:11.033Z,97808.30
2018-05-11T09:38:42.044Z,97801.80
2018-05-11T09:41:13.026Z,97799.97
2018-05-11T09:43:44.065Z,97806.41
2018-05-11T09:46:15.102Z,97801.84
2018-05-11T09:48:46.132Z,97797.20
2018-05-11T09:51:17.176Z,97800.94
2018-05-11T09:53:48.130Z,97806.09
2018-05-11T09:56:19.279Z,97802.52
2018-05-11T09:58:50.270Z,97798.59
2018-05-11T10:01:21.270Z,97807.97
2018-05-11T10:03:52.258Z,97801.17
2018-05-11T10:06:23.225Z,97799.98
2018-05-11T10:08:54.248Z,97790.36
2018-05-11T10:11:25.274Z,97794.95
2018-05-11T10:13:56.331Z,97790.98
2018-05-11T10:16:27.308Z,97789.34
2018-05-11T10:18:58.273Z,97786.23
2018-05-11T10:21:29.258Z,97791.83
2018-05-11T10:24:00.235Z,97789.27
2018-05-11T10:26:31.253Z,97785.83
2018-05-11T10:29:02.334Z,97787.50
2018-05-11T10:31:33.304Z,97780.02
2018-05-11T10:34:04.280Z,97781.19
2018-05-11T10:36:35.245Z,97782.77
2018-05-11T10:39:06.228Z,97782.37
2018-05-11T10:41:37.192Z,97779.00
2018-05-11T10:44:08.220Z,97774.02
2018-05-11T10:46:39.225Z,97776.61
2018-05-11T10:49:10.223Z,97784.39
2018-05-11T10:51:41.300Z,97774.63
2018-05-11T10:54:12.278Z,97772.30
2018-05-11T10:56:43.331Z,97770.48
2018-05-11T10:59:14.353Z,97758.83
2018-05-11T11:01:45.320Z,97764.64
2018-05-11T11:04:16.274Z,97768.92
2018-05-11T11:06:47.231Z,97768.16
2018-05-11T11:09:18.229Z,97777.17
2018-05-11T11:11:49.217Z,97765.94
2018-05-11T11:14:20.202Z,97755.91
2018-05-11T11:16:58.354Z,97755.10
2018-05-11T11:19:29.334Z,97750.28
2018-05-11T11:22:00.368Z,97747.70
2018-05-11T11:24:31.350Z,97745.84
2018-05-11T11:27:02.346Z,97738.53
2018-05-11T11:29:33.281Z,97738.81
2018-05-11T11:32:04.344Z,97733.59
2018-05-11T11:34:42.399Z,97731.53
2018-05-11T11:37:13.433Z,97733.42
2018-05-11T11:39:44.442Z,97726.69
2018-05-11T11:42:15.499Z,97730.78
2018-05-11T11:44:46.492Z,97729.16
2018-05-11T11:47:17.489Z,97727.97
2018-05-11T11:49:48.475Z,97729.44
2018-05-11T11:52:19.437Z,97726.73
2018-05-11T11:54:50.424Z,97725.87
2018-05-11T11:57:21.425Z,97719.67
2018-05-11T11:59:52.446Z,97710.05
2018-05-11T12:02:23.489Z,97715.92
2018-05-11T12:04:54.520Z,97710.69
2018-05-11T12:07:25.483Z,97699.04
2018-05-11T12:09:56.492Z,97701.20
2018-05-11T12:12:27.464Z,97695.28
2018-05-11T12:14:58.480Z,97698.11
2018-05-11T12:17:29.443Z,97696.71
2018-05-11T12:20:00.419Z,97693.91
2018-05-11T12:22:31.456Z,97687.80
2018-05-11T12:25:02.436Z,97692.48
2018-05-11T12:27:33.446Z,97693.91
2018-05-11T12:30:04.460Z,97686.78
2018-05-11T12:32:35.496Z,97686.59
2018-05-11T12:35:06.492Z,97676.52
2018-05-11T12:37:37.504Z,97670.56
2018-05-11T12:40:08.529Z,97670.47
2018-05-11T12:42:39.488Z,97671.27
2018-05-11T12:45:10.490Z,97669.28
2018-05-11T12:47:41.538Z,97659.88
2018-05-11T12:50:12.520Z,97660.97
2018-05-11T12:52:43.641Z,97653.34
2018-05-11T12:55:14.545Z,97650.57
2018-05-11T12:57:45.558Z,97649.16
2018-05-11T13:00:16.562Z,97643.65
2018-05-11T13:02:47.564Z,97639.78
2018-05-11T13:05:18.547Z,97633.38
2018-05-11T13:07:49.522Z,97636.34
2018-05-11T13:10:20.498Z,97630.87
2018-05-11T13:12:51.518Z,97634.98
2018-05-11T13:15:22.504Z,97628.41
2018-05-11T13:17:53.512Z,97634.45
2018-05-11T13:20:24.510Z,97619.03
2018-05-11T13:22:55.530Z,97617.02
2018-05-11T13:25:26.514Z,97613.59
2018-05-11T13:28:04.466Z,97617.91
2018-05-11T13:30:36.028Z,97608.35
2018-05-11T13:33:07.026Z,97609.02
2018-05-11T13:35:38.032Z,97602.48
2018-05-11T13:38:09.044Z,97592.53
2018-05-11T13:40:40.053Z,97605.89
2018-05-11T13:43:11.041Z,97603.46
2018-05-11T13:45:42.013Z,97603.18
2018-05-11T13:48:13.014Z,97599.98
2018-05-11T13:50:43.980Z,97593.85
2018-05-11T13:53:14.956Z,97587.00
2018-05-11T13:55:45.979Z,97583.30
2018-05-11T13:58:16.997Z,97581.72
2018-05-11T14:00:47.980Z,97576.50
2018-05-11T14:03:19.028Z,97582.59
2018-05-11T14:05:49.997Z,97572.55
2018-05-11T14:08:20.993Z,97579.02
2018-05-11T14:10:51.995Z,97583.17
2018-05-11T14:13:23.013Z,97582.94
2018-05-11T14:15:53.999Z,97569.98
2018-05-11T14:18:24.964Z,97563.64
2018-05-11T14:20:55.948Z,97568.41
2018-05-11T14:23:26.956Z,97571.43
2018-05-11T14:25:57.926Z,97560.91
2018-05-11T14:28:28.934Z,97570.52
2018-05-11T14:30:59.957Z,97562.11
2018-05-11T14:33:30.987Z,97563.22
2018-05-11T14:36:02.066Z,97561.13
2018-05-11T14:38:33.062Z,97558.09
2018-05-11T14:41:04.090Z,97545.51
2018-05-11T14:43:35.054Z,97550.77
2018-05-11T14:46:06.054Z,97549.97
2018-05-11T14:48:37.042Z,97548.93
2018-05-11T14:51:08.039Z,97550.75
2018-05-11T14:53:39.039Z,97542.52
2018-05-11T14:56:10.036Z,97541.47
2018-05-11T14:58:41.046Z,97533.63
2018-05-11T15:01:12.017Z,97542.22
2018-05-11T15:03:43.012Z,97539.70
2018-05-11T15:06:13.988Z,97538.38
2018-05-11T15:08:44.966Z,97530.56
2018-05-11T15:11:16.008Z,97528.05
2018-05-11T15:13:47.033Z,97523.75
2018-05-11T15:16:18.076Z,97530.09
2018-05-11T15:18:49.120Z,97532.05
2018-05-11T15:21:20.159Z,97529.97
2018-05-11T15:23:51.122Z,97522.24
2018-05-11T15:26:22.192Z,97522.90
2018-05-11T15:28:53.183Z,97514.05
2018-05-11T15:31:24.199Z,97516.21
2018-05-11T15:33:55.226Z,97510.42
2018-05-11T15:36:26.220Z,97513.70
2018-05-11T15:38:57.265Z,97499.38
2018-05-11T15:41:28.283Z,97499.88
2018-05-11T15:43:59.348Z,97492.09
2018-05-11T15:46:30.415Z,97496.41
2018-05-11T15:49:01.356Z,97497.02
2018-05-11T15:51:32.410Z,97494.23
2018-05-11T15:54:03.410Z,97493.92
2018-05-11T15:56:34.374Z,97492.47
2018-05-11T15:59:05.459Z,97490.64
2018-05-11T16:01:36.545Z,97493.48
2018-05-11T16:04:07.515Z,97486.01
2018-05-11T16:06:38.524Z,97480.06
2018-05-11T16:09:09.530Z,97483.95
2018-05-11T16:11:41.411Z,97484.56
2018-05-11T16:14:12.677Z,97481.53
2018-05-11T16:16:43.700Z,97475.38
2018-05-11T16:19:14.932Z,97479.54
2018-05-11T16:21:46.039Z,97480.06
2018-05-11T16:24:17.040Z,97479.47
2018-05-11T16:26:48.090Z,97477.05
2018-05-11T16:29:19.076Z,97479.80
2018-05-11T16:31:50.041Z,97479.18
2018-05-11T16:34:20.975Z,97486.13
2018-05-11T16:36:51.979Z,97473.97
2018-05-11T16:39:22.971Z,97477.39
2018-05-11T16:41:54.001Z,97471.20
2018-05-11T16:44:24.997Z,97458.75
2018-05-11T16:46:56.011Z,97459.88
2018-05-11T16:49:26.979Z,97462.39
2018-05-11T16:51:57.972Z,97459.47
2018-05-11T16:54:28.954Z,97460.37
2018-05-11T16:57:00.032Z,97463.75
2018-05-11T16:59:31.021Z,97457.88
2018-05-11T17:02:02.065Z,97463.72
2018-05-11T17:04:33.051Z,97465.17
2018-05-11T17:07:04.035Z,97470.82
2018-05-11T17:09:35.038Z,97470.84
2018-05-11T17:12:06.031Z,97461.06
2018-05-11T17:14:37.003Z,97461.86
2018-05-11T17:17:07.991Z,97463.56
2018-05-11T17:19:39.024Z,97470.28
2018-05-11T17:22:10.024Z,97469.06
2018-05-11T17:24:41.032Z,97470.45
2018-05-11T17:27:11.998Z,97475.59
2018-05-11T17:29:43.037Z,97478.66
2018-05-11T17:32:14.038Z,97473.80
2018-05-11T17:34:45.068Z,97471.04
2018-05-11T17:37:16.058Z,97471.58
2018-05-11T17:39:47.080Z,97473.35
2018-05-11T17:42:18.088Z,97473.06
2018-05-11T17:44:49.084Z,97473.25
2018-05-11T17:47:20.116Z,97466.42
2018-05-11T17:49:51.160Z,97478.48
2018-05-11T17:52:22.109Z,97480.88
2018-05-11T17:54:53.148Z,97479.36
2018-05-11T17:57:24.143Z,97480.52
2018-05-11T17:59:55.124Z,97477.14
2018-05-11T18:02:26.105Z,97483.70
2018-05-11T18:04:57.115Z,97488.50
2018-05-11T18:07:28.094Z,97490.33
2018-05-11T18:09:59.600Z,97497.75
2018-05-11T18:12:30.564Z,97491.69
2018-05-11T18:15:01.585Z,97492.72
2018-05-11T18:17:32.578Z,97494.07
2018-05-11T18:20:03.531Z,97495.25
2018-05-11T18:22:34.548Z,97494.23
2018-05-11T18:25:05.563Z,97498.05
2018-05-11T18:27:36.607Z,97499.17
2018-05-11T18:30:07.599Z,97497.75
2018-05-11T18:32:38.578Z,97501.66
2018-05-11T18:35:09.604Z,97497.89
2018-05-11T18:37:40.581Z,97497.87
2018-05-11T18:40:11.665Z,97496.29
2018-05-11T18:42:42.575Z,97495.02
2018-05-11T18:45:13.576Z,97502.41
2018-05-11T18:47:44.549Z,97505.14
2018-05-11T18:50:15.564Z,97506.14
2018-05-11T18:52:46.540Z,97508.32
2018-05-11T18:55:17.591Z,97508.80
2018-05-11T18:57:48.585Z,97511.92
2018-05-11T19:00:19.620Z,97517.66
2018-05-11T19:02:50.617Z,97513.30
2018-05-11T19:05:21.588Z,97514.05
2018-05-11T19:07:52.764Z,97517.55
2018-05-11T19:10:23.802Z,97526.55
2018-05-11T19:12:54.802Z,97526.98
2018-05-11T19:15:25.828Z,97526.02
2018-05-11T19:17:56.910Z,97536.05
2018-05-11T19:20:27.878Z,97537.68
2018-05-11T19:22:58.884Z,97544.56
2018-05-11T19:25:29.893Z,97539.97
2018-05-11T19:28:00.913Z,97545.16
2018-05-11T19:30:31.910Z,97544.07
2018-05-11T19:33:02.927Z,97541.92
2018-05-11T19:35:33.929Z,97548.62
2018-05-11T19:38:04.919Z,97555.81
2018-05-11T19:40:35.906Z,97553.41
2018-05-11T19:43:06.868Z,97556.27
2018-05-11T19:45:37.854Z,97562.92
2018-05-11T19:48:08.786Z,97555.42
2018-05-11T19:50:39.791Z,97554.28
2018-05-11T19:53:10.754Z,97558.50
2018-05-11T19:55:41.762Z,97560.03
2018-05-11T19:58:12.760Z,97557.65
2018-05-11T20:00:43.775Z,97558.77
2018-05-11T20:03:14.849Z,97563.89
2018-05-11T20:05:45.814Z,97561.91
2018-05-11T20:08:16.811Z,97562.23
2018-05-11T20:10:47.799Z,97560.98
2018-05-11T20:13:18.811Z,97563.19
2018-05-11T20:15:49.828Z,97560.70
2018-05-11T20:18:20.872Z,97559.27
2018-05-11T20:20:51.826Z,97562.69
2018-05-11T20:23:22.850Z,97567.81
2018-05-11T20:25:53.868Z,97566.15
2018-05-11T20:28:24.838Z,97574.98
2018-05-11T20:30:55.849Z,97576.82
2018-05-11T20:33:26.865Z,97575.16
2018-05-11T20:35:57.851Z,97571.05
2018-05-11T20:38:28.838Z,97575.89
2018-05-11T20:40:59.798Z,97575.30
2018-05-11T20:43:30.844Z,97570.33
2018-05-11T20:46:01.902Z,97569.37
2018-05-11T20:48:33.003Z,97582.38
2018-05-11T20:51:04.005Z,97584.61
2018-05-11T20:53:35.013Z,97583.91
2018-05-11T20:56:06.007Z,97573.09
2018-05-11T20:58:37.006Z,97571.86
2018-05-11T21:01:08.059Z,97573.22
2018-05-11T21:03:39.018Z,97573.56
2018-05-11T21:06:10.015Z,97572.16
2018-05-11T21:08:40.987Z,97569.05
2018-05-11T21:11:12.014Z,97567.13
2018-05-11T21:13:43.001Z,97567.30
2018-05-11T21:16:14.000Z,97567.72
2018-05-11T21:18:44.992Z,97569.26
2018-05-11T21:21:15.992Z,97568.81
2018-05-11T21:23:46.997Z,97571.64
2018-05-11T21:26:17.959Z,97572.52
2018-05-11T21:28:48.962Z,97567.00
2018-05-11T21:31:20.008Z,97569.83
2018-05-11T21:33:51.020Z,97572.69
2018-05-11T21:36:21.982Z,97575.78
2018-05-11T21:38:52.976Z,97577.14
2018-05-11T21:41:23.966Z,97574.27
2018-05-11T21:44:01.874Z,97577.10
2018-05-11T21:46:32.897Z,97570.50
2018-05-11T21:49:03.916Z,97566.79
2018-05-11T21:51:34.903Z,97576.78
2018-05-11T21:54:05.896Z,97570.33
2018-05-11T21:56:36.885Z,97571.28
2018-05-11T21:59:07.913Z,97575.89
2018-05-11T22:01:38.877Z,97576.51
2018-05-11T22:04:09.874Z,97577.61
2018-05-11T22:06:40.843Z,97573.30
2018-05-11T22:09:11.824Z,97578.80
2018-05-11T22:11:42.778Z,97584.34
2018-05-11T22:14:13.750Z,97582.91
2018-05-11T22:16:44.761Z,97580.19
2018-05-11T22:19:15.784Z,97576.87
2018-05-11T22:21:46.737Z,97578.39
2018-05-11T22:24:17.752Z,97568.59
2018-05-11T22:26:48.735Z,97573.70
2018-05-11T22:29:19.729Z,97585.19
2018-05-11T22:31:50.703Z,97582.47
2018-05-11T22:34:21.742Z,97581.27
2018-05-11T22:36:52.690Z,97587.55
2018-05-11T22:39:23.708Z,97586.56
2018-05-11T22:41:54.731Z,97584.50
2018-05-11T22:44:25.706Z,97584.42
2018-05-11T22:46:56.749Z,97585.23
2018-05-11T22:49:27.872Z,97587.81
2018-05-11T22:51:58.812Z,97582.64
2018-05-11T22:54:29.807Z,97584.69
2018-05-11T22:57:00.805Z,97581.41
2018-05-11T22:59:31.792Z,97577.59
2018-05-11T23:02:03.148Z,97575.11
2018-05-11T23:04:34.128Z,97577.52
2018-05-11T23:07:05.122Z,97578.50
2018-05-11T23:09:36.140Z,97574.95
2018-05-11T23:12:07.111Z,97571.52
2018-05-11T23:14:38.115Z,97568.64
2018-05-11T23:17:09.052Z,97567.86
2018-05-11T23:19:40.041Z,97576.53
2018-05-11T23:22:12.035Z,97570.72
2018-05-11T23:24:43.019Z,97570.24
2018-05-11T23:27:13.994Z,97567.25
2018-05-11T23:29:45.044Z,97565.30
2018-05-11T23:32:16.014Z,97559.78
2018-05-11T23:34:46.984Z,97561.82
2018-05-11T23:37:18.010Z,97555.89
2018-05-11T23:39:49.020Z,97556.55
2018-05-11T23:42:20.038Z,97551.77
2018-05-11T23:44:51.003Z,97547.80
2018-05-11T23:47:21.985Z,97551.11
2018-05-11T23:49:52.985Z,97547.00
2018-05-11T23:52:24.003Z,97550.45
2018-05-11T23:54:54.973Z,97552.35
2018-05-11T23:57:25.988Z,97554.08
2018-05-11T23:59:57.011Z,97552.26
